createdAt,value
2022-08-05T00:01:27.790Z,3.28
2022-08-05T00:04:31.452Z,2.92
2022-08-05T00:08:00.158Z,3.10
2022-08-05T00:11:00.650Z,2.65
2022-08-05T00:14:12.772Z,2.75
2022-08-05T00:17:28.629Z,2.70
2022-08-05T00:20:30.955Z,2.75
2022-08-05T00:23:46.431Z,2.80
2022-08-05T00:26:55.680Z,3.15
2022-08-05T00:29:58.253Z,2.80
2022-08-05T00:33:02.946Z,2.87
2022-08-05T00:36:16.370Z,2.80
2022-08-05T00:39:28.331Z,3.17
2022-08-05T00:42:44.252Z,2.70
2022-08-05T00:45:51.675Z,2.92
2022-08-05T00:48:55.690Z,3.05
2022-08-05T00:52:00.407Z,3.17
2022-08-05T00:55:03.673Z,3.00
2022-08-05T00:58:06.052Z,2.75
2022-08-05T01:01:15.605Z,3.12
2022-08-05T01:04:29.922Z,3.10
2022-08-05T01:07:32.754Z,3.40
2022-08-05T01:10:52.495Z,2.90
2022-08-05T01:14:08.861Z,2.95
2022-08-05T01:17:16.703Z,3.30
2022-08-05T01:20:50.017Z,3.30
2022-08-05T01:24:23.455Z,3.20
2022-08-05T01:27:55.589Z,3.37
2022-08-05T01:31:25.784Z,3.37
2022-08-05T01:34:39.355Z,3.28
2022-08-05T01:37:48.076Z,3.37
2022-08-05T01:40:53.115Z,3.37
2022-08-05T01:43:57.085Z,3.87
2022-08-05T01:47:02.014Z,3.75
2022-08-05T01:50:16.065Z,3.40
2022-08-05T01:53:54.982Z,3.62
2022-08-05T01:58:11.161Z,4.60
2022-08-05T02:00:11.916Z,3.67
2022-08-05T02:03:31.773Z,3.72
2022-08-05T02:06:38.389Z,3.60
2022-08-05T02:09:41.445Z,3.75
2022-08-05T02:13:03.007Z,3.62
2022-08-05T02:16:22.248Z,3.65
2022-08-05T02:19:35.033Z,3.87
2022-08-05T02:22:43.681Z,3.72
2022-08-05T02:25:49.012Z,3.12
2022-08-05T02:28:56.133Z,3.40
2022-08-05T02:32:04.685Z,3.80
2022-08-05T02:35:19.048Z,3.37
2022-08-05T02:38:35.412Z,3.35
2022-08-05T02:41:58.076Z,3.40
2022-08-05T02:45:04.561Z,3.50
2022-08-05T02:48:12.796Z,4.00
2022-08-05T02:51:16.661Z,3.95
2022-08-05T02:54:34.543Z,3.33
2022-08-05T02:58:09.707Z,3.50
2022-08-05T03:01:03.904Z,3.92
2022-08-05T03:04:13.938Z,3.67
2022-08-05T03:07:40.445Z,3.85
2022-08-05T03:11:47.620Z,3.55
2022-08-05T03:14:08.313Z,3.65
2022-08-05T03:17:10.666Z,3.35
2022-08-05T03:20:13.858Z,3.60
2022-08-05T03:23:16.686Z,3.60
2022-08-05T03:26:32.472Z,3.50
2022-08-05T03:29:45.666Z,4.20
2022-08-05T03:33:02.869Z,3.95
2022-08-05T03:36:06.640Z,4.07
2022-08-05T03:39:20.142Z,3.80
2022-08-05T03:42:32.406Z,3.80
2022-08-05T03:45:57.330Z,3.62
2022-08-05T03:49:02.001Z,4.40
2022-08-05T03:52:49.028Z,4.40
2022-08-05T03:56:04.810Z,3.62
2022-08-05T03:59:07.543Z,4.10
2022-08-05T04:02:17.378Z,3.80
2022-08-05T04:05:38.587Z,3.50
2022-08-05T04:08:43.828Z,3.80
2022-08-05T04:11:56.884Z,3.80
2022-08-05T04:14:59.916Z,3.53
2022-08-05T04:18:09.833Z,4.43
2022-08-05T04:21:14.314Z,3.75
2022-08-05T04:24:52.682Z,3.65
2022-08-05T04:27:57.465Z,4.07
2022-08-05T04:31:01.837Z,3.65
2022-08-05T04:34:31.227Z,3.60
2022-08-05T04:38:01.125Z,4.67
2022-08-05T04:41:05.491Z,3.75
2022-08-05T04:44:16.284Z,3.87
2022-08-05T04:47:32.256Z,5.28
2022-08-05T04:51:03.074Z,5.70
2022-08-05T04:54:10.484Z,4.37
2022-08-05T04:57:14.792Z,4.43
2022-08-05T05:00:23.612Z,4.47
2022-08-05T05:03:26.403Z,5.90
2022-08-05T05:06:49.355Z,7.57
2022-08-05T05:10:04.298Z,6.28
2022-08-05T05:13:06.766Z,6.50
2022-08-05T05:19:26.524Z,7.22
2022-08-05T05:22:30.213Z,5.62
2022-08-05T05:25:41.236Z,5.22
2022-08-05T05:28:44.809Z,5.30
2022-08-05T05:31:50.472Z,4.57
2022-08-05T05:34:53.830Z,4.15
2022-08-05T05:38:01.564Z,4.55
2022-08-05T05:41:05.011Z,4.15
2022-08-05T05:44:35.570Z,4.30
2022-08-05T05:48:05.607Z,3.90
2022-08-05T05:54:00.043Z,3.67
2022-08-05T05:57:02.368Z,3.97
2022-08-05T06:00:08.355Z,3.58
2022-08-05T06:03:40.672Z,4.12
2022-08-05T06:06:36.920Z,3.90
2022-08-05T06:10:00.012Z,3.95
2022-08-05T06:13:06.106Z,3.65
2022-08-05T06:16:30.644Z,4.15
2022-08-05T06:19:34.738Z,3.45
2022-08-05T06:22:37.877Z,3.33
2022-08-05T06:26:12.339Z,3.22
2022-08-05T06:29:06.439Z,2.78
2022-08-05T06:32:29.261Z,2.50
2022-08-05T06:36:03.472Z,2.65
2022-08-05T06:38:54.881Z,2.78
2022-08-05T06:41:59.126Z,2.85
2022-08-05T06:45:05.226Z,2.65
2022-08-05T06:48:47.377Z,3.03
2022-08-05T06:51:31.985Z,2.95
2022-08-05T06:54:34.333Z,3.20
2022-08-05T06:58:02.541Z,3.25
2022-08-05T07:01:02.363Z,2.62
2022-08-05T07:04:04.932Z,2.72
2022-08-05T07:07:08.057Z,2.80
2022-08-05T07:10:10.950Z,2.50
2022-08-05T07:13:58.548Z,2.70
2022-08-05T07:17:58.677Z,2.70
2022-08-05T07:20:33.425Z,2.40
2022-08-05T07:23:37.501Z,2.25
2022-08-05T07:26:52.000Z,3.12
2022-08-05T07:33:17.383Z,5.82
2022-08-05T07:36:21.698Z,2.83
2022-08-05T07:39:24.704Z,2.40
2022-08-05T07:42:47.087Z,2.42
2022-08-05T07:45:57.805Z,2.10
2022-08-05T07:49:05.973Z,2.40
2022-08-05T07:52:12.373Z,2.50
2022-08-05T07:55:43.969Z,2.35
2022-08-05T07:58:58.515Z,2.62
2022-08-05T08:02:03.861Z,2.55
2022-08-05T08:05:08.379Z,2.75
2022-08-05T08:08:14.013Z,2.50
2022-08-05T08:11:18.125Z,5.35
2022-08-05T08:14:30.068Z,3.47
2022-08-05T08:17:32.912Z,2.58
2022-08-05T08:21:00.514Z,2.65
2022-08-05T08:24:04.958Z,2.47
2022-08-05T08:27:10.113Z,2.67
2022-08-05T08:30:32.425Z,2.67
2022-08-05T08:33:39.920Z,2.75
2022-08-05T08:36:49.133Z,2.42
2022-08-05T08:39:57.263Z,2.40
2022-08-05T08:46:29.279Z,2.50
2022-08-05T08:50:14.190Z,2.20
2022-08-05T08:53:03.506Z,2.53
2022-08-05T08:56:14.985Z,2.60
2022-08-05T08:59:20.814Z,2.65
2022-08-05T09:02:26.911Z,2.87
2022-08-05T09:05:38.368Z,2.70
2022-08-05T09:08:41.764Z,2.37
2022-08-05T09:11:51.525Z,2.33
2022-08-05T09:15:06.038Z,2.45
2022-08-05T09:18:09.861Z,2.30
2022-08-05T09:21:21.188Z,2.53
2022-08-05T09:24:38.571Z,2.70
2022-08-05T09:28:04.420Z,2.50
2022-08-05T09:32:38.976Z,2.60
2022-08-05T09:34:55.201Z,2.50
2022-08-05T09:38:16.722Z,2.60
2022-08-05T09:41:21.140Z,2.45
2022-08-05T09:44:41.661Z,2.50
2022-08-05T09:47:56.024Z,2.40
2022-08-05T09:51:15.031Z,2.55
2022-08-05T09:54:31.939Z,2.47
2022-08-05T09:57:40.047Z,2.33
2022-08-05T10:01:00.143Z,3.40
2022-08-05T10:04:11.104Z,2.60
2022-08-05T10:07:31.868Z,2.22
2022-08-05T10:10:53.921Z,2.70
2022-08-05T10:13:56.895Z,2.60
2022-08-05T10:17:37.723Z,2.40
2022-08-05T10:20:42.927Z,3.10
2022-08-05T10:23:59.052Z,2.45
2022-08-05T10:27:02.604Z,2.25
2022-08-05T10:32:02.965Z,2.60
2022-08-05T10:33:34.213Z,2.50
2022-08-05T10:36:41.088Z,2.55
2022-08-05T10:39:59.018Z,2.53
2022-08-05T10:43:11.138Z,2.45
2022-08-05T10:46:17.245Z,2.33
2022-08-05T10:49:27.080Z,2.60
2022-08-05T10:52:46.980Z,2.62
2022-08-05T10:56:21.560Z,2.33
2022-08-05T11:00:02.765Z,2.70
2022-08-05T11:02:59.244Z,2.42
2022-08-05T11:06:21.540Z,3.17
2022-08-05T11:10:03.819Z,3.08
2022-08-05T11:13:40.085Z,2.35
2022-08-05T11:17:59.923Z,2.47
2022-08-05T11:20:57.206Z,2.42
2022-08-05T11:24:29.883Z,2.60
2022-08-05T11:27:37.046Z,2.70
2022-08-05T11:31:06.109Z,2.12
2022-08-05T11:34:15.044Z,2.60
2022-08-05T11:38:30.912Z,2.85
2022-08-05T11:41:36.839Z,2.70
2022-08-05T11:44:40.885Z,2.75
2022-08-05T11:47:55.918Z,2.80
2022-08-05T11:50:59.538Z,2.60
2022-08-05T11:54:02.774Z,2.60
2022-08-05T11:57:08.162Z,2.72
2022-08-05T12:00:28.843Z,2.62
2022-08-05T12:03:55.538Z,2.47
2022-08-05T12:07:02.049Z,2.45
2022-08-05T12:10:09.417Z,2.60
2022-08-05T12:13:27.924Z,2.70
2022-08-05T12:16:47.436Z,2.37
2022-08-05T12:20:26.324Z,2.60
2022-08-05T12:23:18.289Z,2.55
2022-08-05T12:26:24.167Z,2.65
2022-08-05T12:29:38.834Z,2.47
2022-08-05T12:32:53.785Z,2.45
2022-08-05T12:36:00.955Z,2.80
2022-08-05T12:39:07.136Z,2.70
2022-08-05T12:42:14.510Z,2.47
2022-08-05T12:45:18.589Z,2.67
2022-08-05T12:48:32.380Z,2.50
2022-08-05T12:52:14.033Z,2.47
2022-08-05T12:55:22.661Z,2.25
2022-08-05T12:58:48.551Z,2.42
2022-08-05T13:05:12.597Z,2.50
2022-08-05T13:08:18.547Z,2.45
2022-08-05T13:12:02.654Z,2.17
2022-08-05T13:15:06.241Z,2.20
2022-08-05T13:18:12.728Z,2.37
2022-08-05T13:21:22.250Z,2.20
2022-08-05T13:24:57.341Z,2.50
2022-08-05T13:27:56.109Z,2.12
2022-08-05T13:31:11.112Z,2.33
2022-08-05T13:34:20.918Z,2.67
2022-08-05T13:37:34.429Z,2.70
2022-08-05T13:40:51.467Z,2.60
2022-08-05T13:43:55.482Z,2.65
2022-08-05T13:47:02.392Z,2.47
2022-08-05T13:53:19.551Z,2.37
2022-08-05T13:59:27.161Z,2.30
2022-08-05T14:02:31.367Z,2.80
2022-08-05T14:06:24.372Z,2.58
2022-08-05T14:08:59.530Z,2.67
2022-08-05T14:12:17.420Z,2.30
2022-08-05T14:16:06.927Z,2.50
2022-08-05T14:18:42.933Z,2.30
2022-08-05T14:22:09.477Z,2.45
2022-08-05T14:25:21.485Z,2.62
2022-08-05T14:28:26.923Z,2.40
2022-08-05T14:31:54.337Z,2.50
2022-08-05T14:34:53.078Z,2.20
2022-08-05T14:38:00.998Z,2.47
2022-08-05T14:41:06.724Z,2.37
2022-08-05T14:44:20.687Z,2.50
2022-08-05T14:48:03.271Z,2.37
2022-08-05T14:50:47.373Z,2.40
2022-08-05T14:54:26.115Z,2.28
2022-08-05T14:57:14.135Z,2.30
2022-08-05T15:00:16.506Z,2.40
2022-08-05T15:03:22.969Z,2.30
2022-08-05T15:06:27.912Z,2.53
2022-08-05T15:09:52.488Z,2.50
2022-08-05T15:13:04.202Z,2.30
2022-08-05T15:16:07.494Z,2.60
2022-08-05T15:19:23.877Z,2.40
2022-08-05T15:22:29.223Z,2.50
2022-08-05T15:25:41.211Z,2.42
2022-08-05T15:28:55.344Z,2.50
2022-08-05T15:32:03.347Z,2.33
2022-08-05T15:35:10.845Z,2.40
2022-08-05T15:38:35.543Z,2.50
2022-08-05T15:41:57.413Z,2.70
2022-08-05T15:45:06.178Z,2.50
2022-08-05T15:48:09.912Z,2.60
2022-08-05T15:51:16.908Z,2.80
2022-08-05T15:57:37.319Z,2.10
2022-08-05T16:00:57.084Z,2.45
2022-08-05T16:04:04.671Z,2.55
2022-08-05T16:07:07.271Z,2.35
2022-08-05T16:10:13.435Z,2.50
2022-08-05T16:13:23.374Z,2.72
2022-08-05T16:16:26.595Z,2.60
2022-08-05T16:22:51.964Z,2.53
2022-08-05T16:26:08.975Z,2.42
2022-08-05T16:29:14.111Z,2.87
2022-08-05T16:32:28.701Z,2.40
2022-08-05T16:35:34.583Z,2.53
2022-08-05T16:38:44.815Z,2.05
2022-08-05T16:42:13.616Z,2.47
2022-08-05T16:46:07.662Z,2.50
2022-08-05T16:48:40.826Z,2.62
2022-08-05T16:51:50.379Z,2.60
2022-08-05T16:54:53.952Z,2.60
2022-08-05T17:01:04.088Z,2.60
2022-08-05T17:04:11.764Z,2.60
2022-08-05T17:07:43.794Z,2.62
2022-08-05T17:10:40.302Z,2.63
2022-08-05T17:13:42.899Z,2.60
2022-08-05T17:16:46.241Z,2.40
2022-08-05T17:19:56.674Z,2.30
2022-08-05T17:22:59.062Z,2.28
2022-08-05T17:26:02.380Z,2.53
2022-08-05T17:29:09.760Z,2.62
2022-08-05T17:32:17.219Z,2.58
2022-08-05T17:35:20.845Z,2.53
2022-08-05T17:38:23.774Z,2.97
2022-08-05T17:42:19.576Z,2.62
2022-08-05T17:44:51.428Z,2.40
2022-08-05T17:47:57.821Z,2.55
2022-08-05T17:51:00.345Z,2.47
2022-08-05T17:54:04.051Z,2.78
2022-08-05T17:57:06.715Z,2.90
2022-08-05T18:00:14.928Z,2.75
2022-08-05T18:06:40.385Z,2.80
2022-08-05T18:09:59.996Z,2.60
2022-08-05T18:13:07.575Z,2.83
2022-08-05T18:16:15.021Z,3.67
2022-08-05T18:19:25.933Z,2.70
2022-08-05T18:22:46.220Z,2.62
2022-08-05T18:25:57.773Z,2.93
2022-08-05T18:29:02.185Z,3.00
2022-08-05T18:32:05.337Z,3.17
2022-08-05T18:38:13.868Z,3.10
2022-08-05T18:41:56.590Z,3.60
2022-08-05T18:44:49.355Z,3.45
2022-08-05T18:48:31.535Z,4.12
2022-08-05T18:52:06.205Z,3.95
2022-08-05T18:55:10.381Z,3.90
2022-08-05T18:58:16.355Z,4.20
2022-08-05T19:01:19.272Z,4.18
2022-08-05T19:04:35.801Z,6.18
2022-08-05T19:08:02.851Z,5.23
2022-08-05T19:11:07.257Z,4.53
2022-08-05T19:14:59.158Z,4.60
2022-08-05T19:18:08.449Z,4.70
2022-08-05T19:20:59.634Z,5.57
2022-08-05T19:24:12.448Z,5.60
2022-08-05T19:27:15.700Z,5.70
2022-08-05T19:30:20.579Z,5.40
2022-08-05T19:33:35.937Z,5.80
2022-08-05T19:36:38.844Z,6.15
2022-08-05T19:39:51.037Z,6.87
2022-08-05T19:43:05.580Z,6.43
2022-08-05T19:46:16.959Z,5.75
2022-08-05T19:49:31.497Z,5.78
2022-08-05T19:52:34.055Z,6.05
2022-08-05T19:56:14.155Z,6.22
2022-08-05T19:59:51.024Z,5.47
2022-08-05T20:02:23.678Z,5.68
2022-08-05T20:05:43.289Z,5.05
2022-08-05T20:08:52.369Z,5.72
2022-08-05T20:11:55.556Z,5.85
2022-08-05T20:14:58.004Z,7.17
2022-08-05T20:18:02.082Z,5.85
2022-08-05T20:21:08.708Z,5.85
2022-08-05T20:24:11.782Z,5.90
2022-08-05T20:27:14.323Z,6.50
2022-08-05T20:30:19.784Z,5.50
2022-08-05T20:33:28.099Z,5.72
2022-08-05T20:36:35.167Z,5.55
2022-08-05T20:39:42.388Z,5.50
2022-08-05T20:43:00.385Z,5.72
2022-08-05T20:46:06.894Z,5.22
2022-08-05T20:49:09.485Z,5.32
2022-08-05T20:52:14.813Z,6.15
2022-08-05T20:56:02.743Z,5.55
2022-08-05T20:58:39.920Z,6.20
2022-08-05T21:01:42.947Z,5.57
2022-08-05T21:04:46.151Z,5.72
2022-08-05T21:07:51.675Z,5.90
2022-08-05T21:10:54.716Z,6.25
2022-08-05T21:14:01.092Z,6.45
2022-08-05T21:17:05.507Z,6.60
2022-08-05T21:20:10.278Z,6.35
2022-08-05T21:23:14.655Z,6.22
2022-08-05T21:26:18.833Z,6.18
2022-08-05T21:29:23.563Z,6.70
2022-08-05T21:32:29.579Z,6.45
2022-08-05T21:35:55.697Z,6.62
2022-08-05T21:38:54.879Z,6.47
2022-08-05T21:42:01.910Z,6.45
2022-08-05T21:45:05.364Z,6.18
2022-08-05T21:48:13.638Z,7.00
2022-08-05T21:52:16.327Z,6.87
2022-08-05T21:54:40.372Z,6.12
2022-08-05T21:57:47.348Z,6.68
2022-08-05T22:00:51.490Z,6.32
2022-08-05T22:03:54.517Z,5.70
2022-08-05T22:06:57.263Z,6.13
2022-08-05T22:10:00.115Z,5.93
2022-08-05T22:13:09.355Z,5.65
2022-08-05T22:16:41.253Z,8.85
2022-08-05T22:20:01.750Z,6.35
2022-08-05T22:24:01.381Z,5.75
2022-08-05T22:27:11.080Z,6.15
2022-08-05T22:30:19.857Z,5.87
2022-08-05T22:33:57.424Z,5.40
2022-08-05T22:36:44.948Z,5.70
2022-08-05T22:39:51.962Z,5.20
2022-08-05T22:42:58.438Z,5.03
2022-08-05T22:46:02.559Z,5.15
2022-08-05T22:49:23.441Z,5.30
2022-08-05T22:52:34.375Z,4.57
2022-08-05T22:55:56.964Z,5.80
2022-08-05T22:59:02.769Z,5.50
2022-08-05T23:02:06.813Z,5.82
2022-08-05T23:08:12.440Z,5.20
2022-08-05T23:11:16.536Z,5.68
2022-08-05T23:14:22.540Z,5.90
2022-08-05T23:17:37.933Z,5.10
2022-08-05T23:20:56.966Z,5.77
2022-08-05T23:24:00.643Z,7.30
2022-08-05T23:27:06.296Z,6.20
2022-08-05T23:30:10.558Z,6.15
2022-08-05T23:33:16.270Z,5.53
2022-08-05T23:36:28.520Z,6.00
2022-08-05T23:39:53.920Z,5.87
2022-08-05T23:42:57.033Z,4.97
2022-08-05T23:45:59.605Z,4.80
2022-08-05T23:49:15.716Z,4.93
2022-08-05T23:52:35.949Z,5.43
2022-08-05T23:55:40.085Z,5.35
2022-08-05T23:58:44.113Z,5.15
